< < Back
Terminal Aerodrome Forecast


Current Version              Previous Versions:   1  2  3  4  5  6  7  8  9  

Terminal Aerodrome Forecast

779
FTUS44 KHUN 261732
TAFHSV
TAF
KHSV 261732Z 2618/2718 32012KT P6SM OVC025
      TEMPO 2620/2623 SCT030
     FM262300 31010KT P6SM BKN025
     FM270300 VRB03KT P6SM OVC035
     FM271200 VRB03KT P6SM OVC015=

Latest METAR

734
SAUS80 KWBC 262200 RRB
MTRHSV
METAR KHSV 262153Z 32009KT 10SM FEW025 BKN100 06/M02 A2997 RMK AO2
SLP150 T00611017


USA.gov is the U.S. government's official web portal to all federal, state and local government web resources and services.